Time;durP1;ratioP1;P1;durP2;ratioP2;P2;SDS_P1;SDS_P2;PMS_P1;PMS_P2;Temp;Humidity;BMP_temperature;BMP_pressure;BME280_temperature;BME280_humidity;BME280_pressure;Samples;Min_cycle;Max_cycle;Signal;HPM_P1;HPM_P2
2023/01/12 00:01:33;;;;;;;9.70;6.10;;;;;;;;;;5057459;28;20258;-57
2023/01/12 00:03:59;;;;;;;8.40;5.53;;;;;;;;;;5054357;28;20274;-58
2023/01/12 00:06:26;;;;;;;13.37;5.30;;;;;;;;;;5056225;28;20228;-57
2023/01/12 00:08:53;;;;;;;8.40;6.20;;;;;;;;;;5051052;28;20322;-57
2023/01/12 00:11:20;;;;;;;11.90;6.23;;;;;;;;;;5054296;28;20232;-56
2023/01/12 00:13:47;;;;;;;8.70;6.70;;;;;;;;;;5049233;28;20766;-57
2023/01/12 00:18:59;;;;;;;10.10;6.33;;;;;;;;;;5056506;28;20242;-57
2023/01/12 00:21:26;;;;;;;11.03;5.87;;;;;;;;;;5050306;28;20232;-56
2023/01/12 00:23:53;;;;;;;8.33;6.07;;;;;;;;;;5045086;28;20319;-56
2023/01/12 00:26:22;;;;;;;9.07;5.23;;;;;;;;;;5048889;28;20382;-57
2023/01/12 00:28:48;;;;;;;10.57;6.03;;;;;;;;;;5061533;28;20734;-57
2023/01/12 00:31:14;;;;;;;14.07;5.80;;;;;;;;;;5058160;28;20237;-57
2023/01/12 00:33:42;;;;;;;8.67;5.93;;;;;;;;;;5043638;28;20725;-57
2023/01/12 00:36:11;;;;;;;14.90;5.77;;;;;;;;;;5047813;28;20283;-58
2023/01/12 00:38:38;;;;;;;11.80;6.83;;;;;;;;;;5064233;28;20306;-56
2023/01/12 00:41:06;;;;;;;15.47;5.83;;;;;;;;;;5062815;28;20223;-56
2023/01/12 00:46:16;;;;;;;11.50;6.37;;;;;;;;;;5051448;28;20277;-60
2023/01/12 00:48:42;;;;;;;9.80;5.13;;;;;;;;;;5074629;28;20240;-59
2023/01/12 00:51:09;;;;;;;14.07;5.57;;;;;;;;;;5052684;28;20310;-57
2023/01/12 00:53:35;;;;;;;9.30;5.03;;;;;;;;;;5050779;28;20295;-56
2023/01/12 00:56:02;;;;;;;10.83;6.13;;;;;;;;;;5058504;28;20303;-57
2023/01/12 00:58:30;;;;;;;9.00;4.47;;;;;;;;;;5045178;28;20244;-57
2023/01/12 01:01:03;;;;;;;5.97;4.37;;;;;;;;;;5036848;28;20238;-58
2023/01/12 01:03:29;;;;;;;11.50;4.73;;;;;;;;;;5042252;28;20443;-57
2023/01/12 01:06:01;;;;;;;8.57;5.67;;;;;;;;;;5048774;28;20227;-58
2023/01/12 01:08:27;;;;;;;12.27;3.63;;;;;;;;;;5045295;28;20326;-57
2023/01/12 01:11:00;;;;;;;8.00;4.40;;;;;;;;;;5052624;28;20279;-57
2023/01/12 01:13:27;;;;;;;8.77;4.73;;;;;;;;;;5055689;28;20679;-58
2023/01/12 01:15:54;;;;;;;11.23;5.27;;;;;;;;;;5032153;28;20319;-56
2023/01/12 01:18:21;;;;;;;5.63;3.90;;;;;;;;;;5038704;28;20235;-58
2023/01/12 01:20:48;;;;;;;15.80;4.30;;;;;;;;;;5043750;28;20231;-56
2023/01/12 01:23:14;;;;;;;8.87;4.57;;;;;;;;;;5053214;28;20326;-57
2023/01/12 01:25:40;;;;;;;7.63;2.87;;;;;;;;;;5049112;28;20232;-56
2023/01/12 01:28:07;;;;;;;8.80;3.50;;;;;;;;;;5036927;28;20565;-58
2023/01/12 01:30:33;;;;;;;8.57;4.07;;;;;;;;;;5042405;28;20237;-56
2023/01/12 01:33:01;;;;;;;3.30;2.93;;;;;;;;;;5044616;28;20267;-57
2023/01/12 01:35:30;;;;;;;6.80;3.40;;;;;;;;;;5044682;28;20314;-57
2023/01/12 01:37:57;;;;;;;9.20;2.80;;;;;;;;;;5044918;28;20240;-57
2023/01/12 01:40:24;;;;;;;5.13;3.10;;;;;;;;;;5028080;28;20314;-57
2023/01/12 01:42:50;;;;;;;6.33;2.40;;;;;;;;;;5038048;28;20274;-57
2023/01/12 01:45:17;;;;;;;6.93;3.00;;;;;;;;;;5041154;28;20255;-57
2023/01/12 01:47:46;;;;;;;7.67;2.50;;;;;;;;;;5044570;28;20624;-57
2023/01/12 01:50:15;;;;;;;8.87;2.70;;;;;;;;;;5039057;28;20241;-57
2023/01/12 01:52:45;;;;;;;5.53;2.40;;;;;;;;;;5031487;28;20323;-56
2023/01/12 01:55:14;;;;;;;10.27;2.70;;;;;;;;;;5045916;28;20240;-56
2023/01/12 01:57:43;;;;;;;13.73;3.00;;;;;;;;;;5035526;28;20339;-58
2023/01/12 02:00:10;;;;;;;8.23;3.10;;;;;;;;;;5035264;28;20228;-56
2023/01/12 02:02:38;;;;;;;12.27;3.10;;;;;;;;;;5036876;28;20228;-57
2023/01/12 02:05:07;;;;;;;6.07;2.17;;;;;;;;;;5043110;28;20290;-57
2023/01/12 02:07:35;;;;;;;11.20;2.87;;;;;;;;;;5030688;28;20645;-57
2023/01/12 02:10:02;;;;;;;7.87;2.70;;;;;;;;;;5037450;28;20236;-56
2023/01/12 02:18:04;;;;;;;6.20;2.90;;;;;;;;;;5056966;28;20243;-57
2023/01/12 02:20:55;;;;;;;8.23;2.13;;;;;;;;;;5044953;28;20231;-58
2023/01/12 02:23:40;;;;;;;7.17;2.80;;;;;;;;;;5034287;28;20487;-56
2023/01/12 02:26:27;;;;;;;10.00;3.00;;;;;;;;;;5039528;28;20318;-58
2023/01/12 02:29:02;;;;;;;5.07;1.53;;;;;;;;;;5050478;28;20216;-58
2023/01/12 02:31:40;;;;;;;4.17;2.23;;;;;;;;;;5046793;28;20251;-57
2023/01/12 02:34:14;;;;;;;5.90;2.63;;;;;;;;;;5044560;28;20242;-58
2023/01/12 02:36:45;;;;;;;5.17;2.57;;;;;;;;;;5042060;28;20310;-59
2023/01/12 02:39:15;;;;;;;5.60;2.20;;;;;;;;;;5041620;28;20231;-60
2023/01/12 02:44:32;;;;;;;8.83;2.77;;;;;;;;;;5037903;28;20754;-60
2023/01/12 02:47:01;;;;;;;9.23;2.40;;;;;;;;;;5035202;28;20252;-62
2023/01/12 02:49:30;;;;;;;5.23;2.00;;;;;;;;;;5045626;28;20223;-61
2023/01/12 02:51:58;;;;;;;9.50;2.30;;;;;;;;;;5042417;28;20251;-60
2023/01/12 02:54:26;;;;;;;10.10;3.17;;;;;;;;;;5044823;28;20227;-61
2023/01/12 02:56:54;;;;;;;12.57;3.17;;;;;;;;;;5034426;28;20264;-59
2023/01/12 02:59:22;;;;;;;11.47;2.67;;;;;;;;;;5039097;28;20322;-58
2023/01/12 03:01:51;;;;;;;14.37;3.10;;;;;;;;;;5040057;28;20255;-58
2023/01/12 03:04:20;;;;;;;7.00;2.33;;;;;;;;;;5042430;28;20243;-61
2023/01/12 03:06:48;;;;;;;15.53;3.47;;;;;;;;;;5039298;28;20322;-59
2023/01/12 03:09:15;;;;;;;7.00;2.53;;;;;;;;;;5048129;28;20268;-60
2023/01/12 03:11:43;;;;;;;7.27;2.10;;;;;;;;;;5041488;28;20231;-60
2023/01/12 03:14:11;;;;;;;11.93;3.77;;;;;;;;;;5033898;28;20250;-61
2023/01/12 03:16:38;;;;;;;6.93;2.63;;;;;;;;;;5035469;28;20304;-61
2023/01/12 03:19:08;;;;;;;7.97;3.40;;;;;;;;;;5026812;28;20601;-61
2023/01/12 03:21:37;;;;;;;7.37;2.57;;;;;;;;;;5035371;28;20234;-63
2023/01/12 03:24:05;;;;;;;8.37;2.20;;;;;;;;;;5031720;28;20239;-61
2023/01/12 03:26:32;;;;;;;9.00;2.33;;;;;;;;;;5051045;28;20390;-61
2023/01/12 03:29:04;;;;;;;8.23;3.00;;;;;;;;;;5051202;28;20701;-60
2023/01/12 03:31:31;;;;;;;6.97;2.40;;;;;;;;;;5052890;28;20228;-59
2023/01/12 03:33:57;;;;;;;6.90;2.17;;;;;;;;;;5035898;28;20263;-58
2023/01/12 03:36:25;;;;;;;8.10;2.87;;;;;;;;;;5035502;28;20615;-58
2023/01/12 03:38:57;;;;;;;9.40;2.87;;;;;;;;;;5033953;28;20319;-58
2023/01/12 03:41:28;;;;;;;10.97;2.40;;;;;;;;;;5037505;28;20219;-58
2023/01/12 03:43:59;;;;;;;14.07;3.00;;;;;;;;;;5043473;28;20232;-65
2023/01/12 03:46:29;;;;;;;7.37;3.97;;;;;;;;;;5051932;28;20247;-58
2023/01/12 03:48:57;;;;;;;12.00;2.50;;;;;;;;;;5032251;28;20293;-57
2023/01/12 03:51:26;;;;;;;6.90;2.50;;;;;;;;;;5039044;28;20295;-57
2023/01/12 03:53:54;;;;;;;3.83;1.90;;;;;;;;;;5036010;28;20929;-57
2023/01/12 03:56:27;;;;;;;6.73;2.37;;;;;;;;;;5033306;28;20360;-57
2023/01/12 03:58:57;;;;;;;7.77;2.13;;;;;;;;;;5030667;28;20238;-57
2023/01/12 04:01:23;;;;;;;3.90;2.20;;;;;;;;;;5033599;28;20761;-57
2023/01/12 04:03:50;;;;;;;3.57;2.47;;;;;;;;;;5036039;28;20242;-57
2023/01/12 04:06:17;;;;;;;9.60;1.97;;;;;;;;;;5034633;28;20228;-57
2023/01/12 04:08:43;;;;;;;11.00;2.83;;;;;;;;;;5039638;28;20230;-56
2023/01/12 04:13:55;;;;;;;6.07;1.37;;;;;;;;;;5048342;28;20738;-58
2023/01/12 04:16:22;;;;;;;6.97;2.13;;;;;;;;;;5043530;28;20319;-58
2023/01/12 04:18:49;;;;;;;9.33;1.77;;;;;;;;;;5042083;28;20236;-56
2023/01/12 04:24:00;;;;;;;7.27;2.13;;;;;;;;;;5047611;28;20760;-58
2023/01/12 04:26:27;;;;;;;5.03;1.80;;;;;;;;;;5063559;28;20224;-57
2023/01/12 04:28:55;;;;;;;3.40;2.33;;;;;;;;;;5050143;28;20228;-58
2023/01/12 04:31:21;;;;;;;6.47;2.10;;;;;;;;;;5046125;28;20285;-57
2023/01/12 04:33:48;;;;;;;4.80;1.93;;;;;;;;;;5070089;28;20672;-57
2023/01/12 04:36:15;;;;;;;3.70;1.47;;;;;;;;;;5048653;28;20239;-57
2023/01/12 04:38:42;;;;;;;9.27;1.70;;;;;;;;;;5029954;28;20236;-57
2023/01/12 04:41:09;;;;;;;3.07;1.63;;;;;;;;;;5034490;28;20229;-57
2023/01/12 04:43:35;;;;;;;5.90;1.63;;;;;;;;;;5047244;28;20239;-57
2023/01/12 04:46:06;;;;;;;5.43;1.83;;;;;;;;;;5068604;28;20231;-57
2023/01/12 04:48:33;;;;;;;4.83;1.37;;;;;;;;;;5060482;28;20303;-57
2023/01/12 04:50:59;;;;;;;6.03;1.60;;;;;;;;;;5048542;28;20770;-57
2023/01/12 04:53:26;;;;;;;7.57;2.60;;;;;;;;;;5047149;28;20227;-59
2023/01/12 04:55:53;;;;;;;7.77;2.63;;;;;;;;;;5067907;28;20230;-57
2023/01/12 04:58:19;;;;;;;7.27;2.50;;;;;;;;;;5056396;28;20231;-57
2023/01/12 05:00:46;;;;;;;9.57;2.00;;;;;;;;;;5055699;28;20231;-57
2023/01/12 05:03:14;;;;;;;9.30;2.50;;;;;;;;;;5057556;28;20306;-57
2023/01/12 05:05:41;;;;;;;5.73;2.07;;;;;;;;;;5050765;28;20232;-57
2023/01/12 05:10:54;;;;;;;8.93;2.67;;;;;;;;;;5049301;28;20235;-59
2023/01/12 05:13:21;;;;;;;8.33;1.77;;;;;;;;;;5032155;28;20232;-57
2023/01/12 05:15:47;;;;;;;6.67;1.87;;;;;;;;;;5051999;28;20236;-58
2023/01/12 05:18:16;;;;;;;7.07;1.77;;;;;;;;;;5030473;28;20236;-57
2023/01/12 05:20:42;;;;;;;2.87;1.47;;;;;;;;;;5035267;28;20233;-58
2023/01/12 05:23:09;;;;;;;9.17;1.60;;;;;;;;;;5044510;28;20240;-58
2023/01/12 05:25:35;;;;;;;4.73;1.83;;;;;;;;;;5051278;28;20223;-57
2023/01/12 05:28:02;;;;;;;3.17;1.17;;;;;;;;;;5064677;28;20226;-56
2023/01/12 05:30:29;;;;;;;10.73;2.40;;;;;;;;;;5053249;28;20228;-57
2023/01/12 05:32:56;;;;;;;2.80;1.40;;;;;;;;;;5056448;28;20718;-56
2023/01/12 05:35:24;;;;;;;4.17;1.87;;;;;;;;;;5049832;28;20250;-57
2023/01/12 05:37:50;;;;;;;6.20;2.43;;;;;;;;;;5064470;28;20314;-57
2023/01/12 05:40:17;;;;;;;5.83;1.93;;;;;;;;;;5052346;28;20310;-56
2023/01/12 05:45:30;;;;;;;6.47;2.17;;;;;;;;;;5059306;28;20235;-57
2023/01/12 05:47:57;;;;;;;4.17;1.17;;;;;;;;;;5050898;28;20246;-57
2023/01/12 05:50:25;;;;;;;3.03;1.60;;;;;;;;;;5039997;28;20227;-58
2023/01/12 05:52:51;;;;;;;7.63;1.63;;;;;;;;;;5036609;28;20228;-56
2023/01/12 05:55:20;;;;;;;7.10;1.80;;;;;;;;;;5039205;28;20233;-57
2023/01/12 05:57:54;;;;;;;3.50;1.73;;;;;;;;;;5046416;28;20240;-57
2023/01/12 06:00:21;;;;;;;2.67;1.40;;;;;;;;;;5041310;28;20235;-57
2023/01/12 06:02:48;;;;;;;12.10;1.70;;;;;;;;;;5050441;28;20243;-58
2023/01/12 06:05:16;;;;;;;5.93;1.80;;;;;;;;;;5058932;28;20234;-58
2023/01/12 06:07:44;;;;;;;5.93;1.47;;;;;;;;;;5058237;28;20223;-57
2023/01/12 06:10:12;;;;;;;3.40;1.40;;;;;;;;;;5078029;28;20222;-58
2023/01/12 06:15:22;;;;;;;7.40;1.30;;;;;;;;;;5027954;28;20239;-57
2023/01/12 06:17:48;;;;;;;7.77;1.57;;;;;;;;;;5041857;28;20223;-57
2023/01/12 06:20:16;;;;;;;4.37;1.73;;;;;;;;;;5044719;28;20250;-56
2023/01/12 06:22:44;;;;;;;4.67;2.30;;;;;;;;;;5052710;28;20228;-57
2023/01/12 06:25:13;;;;;;;5.97;1.87;;;;;;;;;;5041775;28;20228;-58
2023/01/12 06:27:40;;;;;;;2.83;1.83;;;;;;;;;;5051597;28;20227;-60
2023/01/12 06:30:07;;;;;;;5.73;1.70;;;;;;;;;;5047918;28;20224;-57
2023/01/12 06:32:34;;;;;;;4.33;2.60;;;;;;;;;;5050863;28;20239;-58
2023/01/12 06:35:02;;;;;;;4.43;1.53;;;;;;;;;;5073257;28;20292;-61
2023/01/12 06:37:31;;;;;;;7.50;2.60;;;;;;;;;;5064203;28;20231;-57
2023/01/12 06:39:59;;;;;;;3.33;1.40;;;;;;;;;;5051518;28;20231;-58
2023/01/12 06:42:29;;;;;;;12.87;3.33;;;;;;;;;;5057244;28;20300;-57
2023/01/12 06:44:55;;;;;;;7.07;2.00;;;;;;;;;;5066332;28;20223;-57
2023/01/12 06:47:22;;;;;;;8.97;2.73;;;;;;;;;;5060149;28;20313;-61
2023/01/12 06:49:50;;;;;;;9.17;2.10;;;;;;;;;;5069858;28;20255;-57
2023/01/12 06:52:17;;;;;;;8.53;2.10;;;;;;;;;;5041510;28;20231;-57
2023/01/12 06:54:44;;;;;;;2.00;1.57;;;;;;;;;;5045750;28;20314;-57
2023/01/12 06:57:14;;;;;;;6.93;1.83;;;;;;;;;;5048107;28;20267;-56
2023/01/12 06:59:41;;;;;;;4.27;2.03;;;;;;;;;;5036349;28;20232;-57
2023/01/12 07:02:09;;;;;;;7.83;2.10;;;;;;;;;;5043073;28;20267;-57
2023/01/12 07:04:36;;;;;;;5.90;2.73;;;;;;;;;;5061907;28;20590;-57
2023/01/12 07:07:06;;;;;;;5.93;1.70;;;;;;;;;;5050211;28;20254;-56
2023/01/12 07:09:33;;;;;;;5.00;2.00;;;;;;;;;;5053990;28;20791;-56
2023/01/12 07:12:00;;;;;;;5.03;1.40;;;;;;;;;;5036895;28;20661;-56
2023/01/12 07:14:28;;;;;;;2.50;1.87;;;;;;;;;;5053301;28;20227;-56
2023/01/12 07:16:55;;;;;;;4.83;1.93;;;;;;;;;;5072443;28;20280;-58
2023/01/12 07:19:21;;;;;;;11.83;3.27;;;;;;;;;;5055354;28;20351;-57
2023/01/12 07:21:48;;;;;;;8.47;2.60;;;;;;;;;;5053173;28;20227;-57
2023/01/12 07:24:14;;;;;;;4.63;2.53;;;;;;;;;;5055517;28;20227;-58
2023/01/12 07:26:41;;;;;;;8.50;2.03;;;;;;;;;;5051989;28;20717;-57
2023/01/12 07:29:10;;;;;;;6.70;2.27;;;;;;;;;;5033088;28;20807;-57
2023/01/12 07:31:40;;;;;;;6.83;1.80;;;;;;;;;;5054723;28;20230;-57
2023/01/12 07:34:07;;;;;;;7.63;2.50;;;;;;;;;;5039339;28;20940;-57
2023/01/12 07:36:33;;;;;;;5.87;2.13;;;;;;;;;;5040391;28;20749;-57
2023/01/12 07:39:00;;;;;;;4.73;2.33;;;;;;;;;;5049168;28;20231;-56
2023/01/12 07:44:11;;;;;;;7.43;2.13;;;;;;;;;;5045204;28;20232;-57
2023/01/12 07:46:39;;;;;;;3.77;1.33;;;;;;;;;;5064418;28;20281;-57
2023/01/12 07:49:05;;;;;;;6.87;1.47;;;;;;;;;;5060081;28;20674;-56
2023/01/12 07:51:32;;;;;;;6.07;1.67;;;;;;;;;;5039548;28;20286;-57
2023/01/12 07:53:58;;;;;;;4.93;1.77;;;;;;;;;;5033436;28;20334;-57
2023/01/12 07:56:25;;;;;;;8.27;2.87;;;;;;;;;;5040675;28;20243;-57
2023/01/12 07:59:01;;;;;;;;;;;;;;;;;;;;;
2023/01/12 08:01:31;;;;;;;4.17;2.40;;;;;;;;;;5062827;28;20984;-57
2023/01/12 08:03:59;;;;;;;7.43;1.93;;;;;;;;;;5039220;28;20235;-57
2023/01/12 08:06:25;;;;;;;4.27;1.57;;;;;;;;;;5052615;28;20232;-57
2023/01/12 08:08:53;;;;;;;7.63;2.40;;;;;;;;;;5062445;28;20262;-58
2023/01/12 08:11:19;;;;;;;3.03;1.50;;;;;;;;;;5051839;28;20231;-57
2023/01/12 08:13:46;;;;;;;1.70;1.60;;;;;;;;;;5056268;28;20240;-57
2023/01/12 08:16:14;;;;;;;5.00;1.40;;;;;;;;;;5048128;28;20253;-57
2023/01/12 08:18:43;;;;;;;5.73;1.43;;;;;;;;;;5064911;28;20231;-59
2023/01/12 08:21:12;;;;;;;5.27;1.70;;;;;;;;;;5047234;28;20709;-57
2023/01/12 08:23:41;;;;;;;5.90;2.07;;;;;;;;;;5075503;28;20226;-57
2023/01/12 08:26:11;;;;;;;4.77;2.50;;;;;;;;;;5080416;28;20239;-57
2023/01/12 08:28:42;;;;;;;8.50;2.37;;;;;;;;;;5071888;28;20706;-57
2023/01/12 08:31:09;;;;;;;7.33;2.13;;;;;;;;;;5055586;28;20797;-57
2023/01/12 08:33:35;;;;;;;3.23;1.70;;;;;;;;;;5054448;28;20227;-57
2023/01/12 08:36:03;;;;;;;7.60;1.67;;;;;;;;;;5040804;28;20236;-56
2023/01/12 08:38:31;;;;;;;5.23;1.50;;;;;;;;;;5053990;28;20296;-57
2023/01/12 08:46:25;;;;;;;6.03;1.53;;;;;;;;;;5038393;28;20243;-57
2023/01/12 08:48:52;;;;;;;4.40;1.30;;;;;;;;;;5060580;28;20246;-56
2023/01/12 08:51:19;;;;;;;5.40;1.13;;;;;;;;;;5055806;28;20231;-57
2023/01/12 08:53:47;;;;;;;3.83;1.53;;;;;;;;;;5060128;28;20234;-56
2023/01/12 08:56:14;;;;;;;7.03;2.37;;;;;;;;;;5047270;28;20251;-58
2023/01/12 08:58:41;;;;;;;3.30;1.80;;;;;;;;;;5046599;28;20234;-56
2023/01/12 09:01:09;;;;;;;16.53;4.07;;;;;;;;;;5041557;28;20253;-57
2023/01/12 09:03:35;;;;;;;6.27;2.37;;;;;;;;;;5047199;28;20909;-57
2023/01/12 09:06:08;;;;;;;4.90;1.60;;;;;;;;;;5052581;28;20240;-57
2023/01/12 09:08:34;;;;;;;4.07;1.53;;;;;;;;;;5044117;28;20239;-57
2023/01/12 09:11:03;;;;;;;5.30;1.53;;;;;;;;;;5054564;28;20862;-57
2023/01/12 09:13:29;;;;;;;4.47;1.57;;;;;;;;;;5055747;28;20666;-57
2023/01/12 09:15:56;;;;;;;2.40;1.20;;;;;;;;;;5063129;28;20337;-61
2023/01/12 09:18:22;;;;;;;4.50;1.47;;;;;;;;;;5063601;28;20796;-57
2023/01/12 09:20:49;;;;;;;3.80;1.43;;;;;;;;;;5051225;28;20315;-56
2023/01/12 09:23:15;;;;;;;5.10;2.53;;;;;;;;;;5050495;28;20653;-56
2023/01/12 09:25:42;;;;;;;3.20;1.50;;;;;;;;;;5033626;28;20232;-56
2023/01/12 09:28:10;;;;;;;2.43;1.03;;;;;;;;;;5063075;28;20246;-57
2023/01/12 09:30:36;;;;;;;5.67;2.57;;;;;;;;;;5045512;28;20231;-59
2023/01/12 09:33:03;;;;;;;4.07;1.17;;;;;;;;;;5043200;28;20251;-57
2023/01/12 09:35:30;;;;;;;2.60;1.37;;;;;;;;;;5047518;28;20789;-56
2023/01/12 09:37:57;;;;;;;3.97;2.30;;;;;;;;;;5051623;28;20231;-56
2023/01/12 09:40:23;;;;;;;6.30;1.50;;;;;;;;;;5063461;28;20231;-57
2023/01/12 09:48:22;;;;;;;4.67;1.30;;;;;;;;;;5067673;28;20238;-57
2023/01/12 09:50:51;;;;;;;8.07;1.83;;;;;;;;;;5055161;28;20697;-56
2023/01/12 09:53:19;;;;;;;6.83;2.30;;;;;;;;;;5039593;28;20283;-56
2023/01/12 09:55:49;;;;;;;2.27;1.63;;;;;;;;;;5046573;28;20306;-57
2023/01/12 09:58:25;;;;;;;5.17;2.00;;;;;;;;;;5045648;28;20338;-57
2023/01/12 10:00:55;;;;;;;6.13;1.60;;;;;;;;;;5055286;28;20238;-57
2023/01/12 10:03:25;;;;;;;2.17;1.33;;;;;;;;;;5045074;28;20231;-56
2023/01/12 10:05:52;;;;;;;3.87;1.73;;;;;;;;;;5048688;28;20327;-56
2023/01/12 10:08:26;;;;;;;3.27;1.40;;;;;;;;;;5042178;28;20785;-57
2023/01/12 10:11:01;;;;;;;1.50;1.37;;;;;;;;;;5055799;28;20244;-58
2023/01/12 10:13:34;;;;;;;4.73;1.30;;;;;;;;;;5049240;28;20737;-57
2023/01/12 10:16:06;;;;;;;3.03;1.27;;;;;;;;;;5036909;28;20331;-56
2023/01/12 10:18:36;;;;;;;3.90;1.43;;;;;;;;;;5040759;28;20227;-57
2023/01/12 10:21:02;;;;;;;4.67;1.70;;;;;;;;;;5048790;28;20318;-54
2023/01/12 10:23:29;;;;;;;1.60;1.10;;;;;;;;;;5057214;28;20259;-55
2023/01/12 10:26:01;;;;;;;4.70;1.17;;;;;;;;;;5048330;28;20335;-58
2023/01/12 10:28:29;;;;;;;5.13;1.37;;;;;;;;;;5048154;28;20286;-56
2023/01/12 10:30:55;;;;;;;2.70;1.63;;;;;;;;;;5053019;28;20223;-60
2023/01/12 10:33:24;;;;;;;2.60;1.50;;;;;;;;;;5066475;28;20736;-56
2023/01/12 10:35:52;;;;;;;6.07;1.63;;;;;;;;;;5040084;28;20228;-55
2023/01/12 10:38:23;;;;;;;6.23;1.77;;;;;;;;;;5042681;28;20238;-57
2023/01/12 10:41:02;;;;;;;7.63;1.93;;;;;;;;;;5037889;28;20706;-57
2023/01/12 10:43:32;;;;;;;3.57;1.87;;;;;;;;;;5039152;28;20930;-55
2023/01/12 10:46:03;;;;;;;3.60;1.50;;;;;;;;;;5032726;28;20239;-55
2023/01/12 10:48:31;;;;;;;5.37;1.67;;;;;;;;;;5037463;28;20226;-56
2023/01/12 10:50:59;;;;;;;4.00;1.50;;;;;;;;;;5038315;28;20239;-56
2023/01/12 10:53:27;;;;;;;4.93;1.80;;;;;;;;;;5058326;28;20240;-56
2023/01/12 10:55:55;;;;;;;3.77;1.70;;;;;;;;;;5036912;28;20319;-55
2023/01/12 10:58:22;;;;;;;4.43;1.97;;;;;;;;;;5035678;28;20374;-57
2023/01/12 11:00:50;;;;;;;4.17;1.70;;;;;;;;;;5040987;28;20258;-61
2023/01/12 11:03:29;;;;;;;6.90;1.63;;;;;;;;;;5047945;28;20336;-59
2023/01/12 11:06:13;;;;;;;5.03;1.47;;;;;;;;;;5041890;28;20584;-58
2023/01/12 11:08:40;;;;;;;3.00;1.83;;;;;;;;;;5047012;28;20875;-56
2023/01/12 11:11:14;;;;;;;5.13;1.73;;;;;;;;;;5033363;28;20256;-60
2023/01/12 11:13:40;;;;;;;2.97;2.00;;;;;;;;;;5032031;28;20271;-56
2023/01/12 11:16:11;;;;;;;8.23;1.80;;;;;;;;;;5032398;28;20259;-54
2023/01/12 11:18:40;;;;;;;5.73;2.37;;;;;;;;;;5045141;28;20228;-54
2023/01/12 11:21:09;;;;;;;5.03;1.90;;;;;;;;;;5044695;28;20247;-55
2023/01/12 11:23:38;;;;;;;5.40;1.77;;;;;;;;;;5045201;28;20733;-56
2023/01/12 11:26:13;;;;;;;8.47;1.80;;;;;;;;;;5051056;28;20587;-56
2023/01/12 11:28:42;;;;;;;3.47;2.07;;;;;;;;;;5045725;28;20318;-56
2023/01/12 11:31:10;;;;;;;7.13;2.00;;;;;;;;;;5041708;28;20315;-57
2023/01/12 11:33:38;;;;;;;4.30;2.17;;;;;;;;;;5038052;28;20665;-57
2023/01/12 11:36:06;;;;;;;5.93;2.23;;;;;;;;;;5041297;28;20809;-58
2023/01/12 11:38:35;;;;;;;4.30;1.73;;;;;;;;;;5033522;28;20227;-56
2023/01/12 11:41:04;;;;;;;7.97;1.57;;;;;;;;;;5045397;28;20247;-56
2023/01/12 11:43:49;;;;;;;7.63;1.90;;;;;;;;;;5033383;28;20242;-57
2023/01/12 11:46:19;;;;;;;8.50;2.10;;;;;;;;;;5051176;28;20223;-60
2023/01/12 11:48:49;;;;;;;7.70;2.00;;;;;;;;;;5035521;28;20233;-59
2023/01/12 11:51:15;;;;;;;5.20;1.70;;;;;;;;;;5049413;28;20975;-60
2023/01/12 11:53:44;;;;;;;3.60;2.20;;;;;;;;;;5056290;28;20274;-59
2023/01/12 11:56:27;;;;;;;7.07;1.63;;;;;;;;;;5049678;28;20235;-60
2023/01/12 11:58:57;;;;;;;8.47;1.87;;;;;;;;;;5043780;28;20316;-59
2023/01/12 12:01:27;;;;;;;2.27;1.60;;;;;;;;;;5039306;28;20316;-59
2023/01/12 12:03:58;;;;;;;6.30;1.50;;;;;;;;;;5044350;28;20606;-57
2023/01/12 12:06:36;;;;;;;5.67;1.90;;;;;;;;;;5049716;28;20231;-57
2023/01/12 12:09:09;;;;;;;4.97;1.80;;;;;;;;;;5043416;28;20306;-57
2023/01/12 12:11:41;;;;;;;5.60;3.03;;;;;;;;;;5044098;28;20234;-57
2023/01/12 12:14:17;;;;;;;2.87;1.50;;;;;;;;;;5043815;28;20238;-57
2023/01/12 12:16:48;;;;;;;9.50;2.23;;;;;;;;;;5055315;28;20588;-57
2023/01/12 12:19:31;;;;;;;3.30;1.23;;;;;;;;;;5052703;28;20267;-58
2023/01/12 12:22:02;;;;;;;3.83;1.37;;;;;;;;;;5050524;28;20235;-56
2023/01/12 12:24:37;;;;;;;7.13;1.23;;;;;;;;;;5046069;28;20610;-57
2023/01/12 12:27:09;;;;;;;4.30;1.00;;;;;;;;;;5043690;28;20321;-56
2023/01/12 12:29:52;;;;;;;3.43;1.70;;;;;;;;;;5036088;28;20235;-57
2023/01/12 12:32:25;;;;;;;2.13;1.10;;;;;;;;;;5057073;28;20295;-56
2023/01/12 12:35:06;;;;;;;2.50;1.30;;;;;;;;;;5052533;28;20240;-55
2023/01/12 12:37:41;;;;;;;1.37;0.90;;;;;;;;;;5042642;28;20236;-55
2023/01/12 12:40:16;;;;;;;2.80;0.90;;;;;;;;;;5045463;28;20318;-59
2023/01/12 12:45:41;;;;;;;4.03;1.30;;;;;;;;;;5044603;28;20230;-57
2023/01/12 12:48:11;;;;;;;4.27;1.10;;;;;;;;;;5050505;28;20236;-55
2023/01/12 12:50:40;;;;;;;1.63;0.80;;;;;;;;;;5051466;28;20240;-56
2023/01/12 12:53:14;;;;;;;2.13;1.00;;;;;;;;;;5059391;28;20749;-57
2023/01/12 12:55:43;;;;;;;0.63;0.57;;;;;;;;;;5054568;28;20258;-55
2023/01/12 12:58:37;;;;;;;0.60;0.60;;;;;;;;;;5057842;28;20232;-55
2023/01/12 13:01:22;;;;;;;3.77;0.53;;;;;;;;;;5037493;28;20294;-58
2023/01/12 13:03:50;;;;;;;1.03;0.80;;;;;;;;;;5047681;28;20243;-58
2023/01/12 13:06:19;;;;;;;4.23;0.80;;;;;;;;;;5052682;28;20231;-57
2023/01/12 13:08:46;;;;;;;2.03;0.90;;;;;;;;;;5051250;28;20236;-61
2023/01/12 13:11:13;;;;;;;0.33;0.33;;;;;;;;;;5057776;28;20621;-56
2023/01/12 13:13:57;;;;;;;0.40;0.40;;;;;;;;;;5066453;28;20317;-56
2023/01/12 13:16:44;;;;;;;4.60;0.50;;;;;;;;;;5062649;28;20227;-57
2023/01/12 13:19:15;;;;;;;1.43;0.60;;;;;;;;;;5046817;28;20230;-57
2023/01/12 13:21:56;;;;;;;0.73;0.40;;;;;;;;;;5038882;28;20240;-56
2023/01/12 13:24:39;;;;;;;1.37;0.70;;;;;;;;;;5047178;28;20315;-55
2023/01/12 13:27:20;;;;;;;1.87;0.53;;;;;;;;;;5059811;28;20655;-56
2023/01/12 13:29:48;;;;;;;2.80;2.33;;;;;;;;;;5045284;28;20758;-54
2023/01/12 13:32:33;;;;;;;1.03;0.60;;;;;;;;;;5053551;28;20231;-57
2023/01/12 13:34:59;;;;;;;2.13;0.90;;;;;;;;;;5032639;28;20228;-55
2023/01/12 13:37:30;;;;;;;1.90;0.73;;;;;;;;;;5046348;28;20882;-56
2023/01/12 13:39:59;;;;;;;6.20;0.83;;;;;;;;;;5039230;28;20228;-56
2023/01/12 13:45:16;;;;;;;0.53;0.40;;;;;;;;;;5036636;28;20362;-54
2023/01/12 13:47:43;;;;;;;1.63;0.73;;;;;;;;;;5040632;28;20319;-55
2023/01/12 13:50:13;;;;;;;1.80;1.07;;;;;;;;;;5037850;28;20720;-56
2023/01/12 13:52:39;;;;;;;1.40;0.67;;;;;;;;;;5046153;28;20239;-56
2023/01/12 13:55:17;;;;;;;3.10;1.00;;;;;;;;;;5046944;28;20244;-55
2023/01/12 13:57:55;;;;;;;0.77;0.60;;;;;;;;;;5053485;28;20608;-55
2023/01/12 14:00:23;;;;;;;1.33;0.80;;;;;;;;;;5061670;28;20238;-56
2023/01/12 14:02:50;;;;;;;2.80;0.70;;;;;;;;;;5054702;28;20239;-57
2023/01/12 14:05:28;;;;;;;2.57;0.43;;;;;;;;;;5038941;28;20227;-55
2023/01/12 14:08:01;;;;;;;1.30;0.60;;;;;;;;;;5040105;28;20228;-56
2023/01/12 14:10:32;;;;;;;0.80;0.70;;;;;;;;;;5041353;28;20238;-54
2023/01/12 14:13:14;;;;;;;1.07;0.57;;;;;;;;;;5035632;28;20239;-54
2023/01/12 14:18:27;;;;;;;0.50;0.50;;;;;;;;;;5041221;28;20320;-56
2023/01/12 14:20:55;;;;;;;1.50;0.47;;;;;;;;;;5037702;28;20895;-56
2023/01/12 14:23:22;;;;;;;0.63;0.40;;;;;;;;;;5036648;28;20761;-55
2023/01/12 14:26:05;;;;;;;1.20;0.57;;;;;;;;;;5044389;28;20303;-55
2023/01/12 14:28:32;;;;;;;0.73;0.70;;;;;;;;;;5056811;28;20240;-55
2023/01/12 14:31:01;;;;;;;0.43;0.43;;;;;;;;;;5056676;28;20248;-54
2023/01/12 14:33:30;;;;;;;1.53;0.90;;;;;;;;;;5048768;28;20621;-53
2023/01/12 14:36:02;;;;;;;0.83;0.60;;;;;;;;;;5041914;28;20235;-55
2023/01/12 14:38:29;;;;;;;1.23;0.50;;;;;;;;;;5063405;28;20231;-55
2023/01/12 14:40:58;;;;;;;0.73;0.40;;;;;;;;;;5039528;28;20235;-54
2023/01/12 14:46:26;;;;;;;1.73;0.43;;;;;;;;;;5040501;28;20312;-55
2023/01/12 14:48:59;;;;;;;0.77;0.50;;;;;;;;;;5047123;28;20255;-54
2023/01/12 14:51:27;;;;;;;1.00;0.60;;;;;;;;;;5048449;28;20240;-54
2023/01/12 14:53:58;;;;;;;0.60;0.47;;;;;;;;;;5036353;28;20286;-54
2023/01/12 14:56:26;;;;;;;0.43;0.43;;;;;;;;;;5049886;28;20231;-57
2023/01/12 14:58:53;;;;;;;0.30;0.30;;;;;;;;;;5038881;28;21009;-54
2023/01/12 15:01:31;;;;;;;1.80;0.73;;;;;;;;;;5049954;28;20706;-55
2023/01/12 15:03:58;;;;;;;4.70;0.60;;;;;;;;;;5044148;28;20242;-54
2023/01/12 15:06:24;;;;;;;0.40;0.40;;;;;;;;;;5054458;28;21647;-55
2023/01/12 15:08:55;;;;;;;0.50;0.50;;;;;;;;;;5034409;28;20971;-55
2023/01/12 15:11:29;;;;;;;0.50;0.50;;;;;;;;;;5060063;28;20275;-55
2023/01/12 15:13:56;;;;;;;1.33;0.60;;;;;;;;;;5032116;28;20227;-55
2023/01/12 15:27:20;;;;;;;0.50;0.50;;;;;;;;;;5043878;28;20254;-54
2023/01/12 15:29:47;;;;;;;0.80;0.77;;;;;;;;;;5054900;28;20285;-54
2023/01/12 15:32:15;;;;;;;0.70;0.70;;;;;;;;;;5036404;28;20244;-54
2023/01/12 15:34:43;;;;;;;1.20;0.60;;;;;;;;;;5035269;28;20240;-53
2023/01/12 15:37:13;;;;;;;0.40;0.40;;;;;;;;;;5035375;28;20829;-55
2023/01/12 15:39:39;;;;;;;0.70;0.50;;;;;;;;;;5039692;28;20329;-54
2023/01/12 15:42:15;;;;;;;0.90;0.60;;;;;;;;;;5040578;28;20311;-54
2023/01/12 15:44:42;;;;;;;0.50;0.50;;;;;;;;;;5034265;28;20397;-54
2023/01/12 15:47:10;;;;;;;1.13;0.60;;;;;;;;;;5048588;28;20231;-55
2023/01/12 15:49:36;;;;;;;0.87;0.70;;;;;;;;;;5059378;28;20235;-54
2023/01/12 15:52:04;;;;;;;0.53;0.50;;;;;;;;;;5039300;28;20338;-54
2023/01/12 15:54:30;;;;;;;0.47;0.47;;;;;;;;;;5051834;28;20231;-53
2023/01/12 15:56:58;;;;;;;0.30;0.30;;;;;;;;;;5048974;28;20241;-54
2023/01/12 15:59:25;;;;;;;0.40;0.40;;;;;;;;;;5049943;28;20647;-54